createdAt,value
2023-04-06T00:01:25.367Z,55.24
2023-04-06T00:03:28.071Z,55.61
2023-04-06T00:05:31.888Z,55.59
2023-04-06T00:07:35.185Z,55.90
2023-04-06T00:09:37.892Z,55.73
2023-04-06T00:11:40.523Z,55.57
2023-04-06T00:13:43.212Z,55.66
2023-04-06T00:15:45.902Z,55.73
2023-04-06T00:17:48.742Z,55.88
2023-04-06T00:19:51.521Z,55.36
2023-04-06T00:21:54.277Z,55.12
2023-04-06T00:23:57.080Z,55.36
2023-04-06T00:25:59.795Z,55.18
2023-04-06T00:28:02.549Z,55.43
2023-04-06T00:30:06.445Z,55.14
2023-04-06T00:32:09.272Z,55.00
2023-04-06T00:34:11.987Z,55.21
2023-04-06T00:36:14.797Z,55.00
2023-04-06T00:38:17.636Z,55.03
2023-04-06T00:40:20.683Z,55.14
2023-04-06T00:42:27.164Z,55.19
2023-04-06T00:44:29.946Z,55.27
2023-04-06T00:46:32.668Z,55.15
2023-04-06T00:48:35.510Z,55.13
2023-04-06T00:50:38.294Z,55.31
2023-04-06T00:52:41.357Z,54.78
2023-04-06T00:54:44.987Z,55.00
2023-04-06T00:56:47.655Z,54.92
2023-04-06T00:58:51.145Z,54.70
2023-04-06T01:00:53.899Z,54.78
2023-04-06T01:02:56.891Z,54.80
2023-04-06T01:04:59.697Z,55.14
2023-04-06T01:07:03.018Z,55.22
2023-04-06T01:09:06.074Z,55.35
2023-04-06T01:11:08.925Z,55.76
2023-04-06T01:13:11.607Z,55.91
2023-04-06T01:15:14.973Z,56.39
2023-04-06T01:17:18.148Z,56.33
2023-04-06T01:19:22.222Z,56.67
2023-04-06T01:21:24.989Z,56.75
2023-04-06T01:23:27.713Z,56.74
2023-04-06T01:25:30.680Z,56.85
2023-04-06T01:27:33.501Z,57.04
2023-04-06T01:29:36.417Z,57.40
2023-04-06T01:31:40.295Z,57.11
2023-04-06T01:33:43.173Z,57.29
2023-04-06T01:35:46.118Z,57.23
2023-04-06T01:37:48.839Z,57.71
2023-04-06T01:39:52.188Z,57.42
2023-04-06T01:41:54.791Z,57.96
2023-04-06T01:43:57.536Z,57.81
2023-04-06T01:46:00.479Z,58.02
2023-04-06T01:48:03.071Z,57.86
2023-04-06T01:50:07.467Z,58.04
2023-04-06T01:52:10.121Z,58.03
2023-04-06T01:54:12.749Z,58.04
2023-04-06T01:56:15.684Z,58.56
2023-04-06T01:58:18.295Z,58.76
2023-04-06T02:00:20.954Z,58.58
2023-04-06T02:02:23.797Z,58.57
2023-04-06T02:04:27.218Z,58.62
2023-04-06T02:06:30.052Z,58.85
2023-04-06T02:08:32.675Z,58.72
2023-04-06T02:10:36.221Z,58.94
2023-04-06T02:12:38.852Z,58.84
2023-04-06T02:14:41.660Z,59.15
2023-04-06T02:16:44.435Z,58.81
2023-04-06T02:18:47.167Z,58.93
2023-04-06T02:20:49.940Z,59.14
2023-04-06T02:22:52.643Z,59.28
2023-04-06T02:24:55.220Z,59.15
2023-04-06T02:26:57.930Z,59.29
2023-04-06T02:29:00.776Z,59.63
2023-04-06T02:31:03.463Z,59.33
2023-04-06T02:33:06.270Z,59.46
2023-04-06T02:35:09.339Z,59.79
2023-04-06T02:37:12.046Z,59.35
2023-04-06T02:39:15.130Z,59.56
2023-04-06T02:41:17.970Z,59.67
2023-04-06T02:43:20.955Z,59.43
2023-04-06T02:45:23.665Z,59.45
2023-04-06T02:47:26.563Z,59.71
2023-04-06T02:49:29.250Z,59.55
2023-04-06T02:51:31.942Z,59.77
2023-04-06T02:53:34.602Z,59.80
2023-04-06T02:55:37.329Z,59.87
2023-04-06T02:57:40.227Z,60.10
2023-04-06T02:59:42.971Z,60.25
2023-04-06T03:01:45.761Z,59.92
2023-04-06T03:03:48.621Z,60.05
2023-04-06T03:05:51.361Z,60.25
2023-04-06T03:07:54.182Z,59.95
2023-04-06T03:09:56.886Z,60.20
2023-04-06T03:11:59.754Z,59.86
2023-04-06T03:14:02.469Z,60.02
2023-04-06T03:16:06.454Z,59.94
2023-04-06T03:18:09.450Z,60.24
2023-04-06T03:20:12.390Z,59.72
2023-04-06T03:22:15.078Z,59.92
2023-04-06T03:24:17.782Z,59.80
2023-04-06T03:26:20.558Z,59.96
2023-04-06T03:28:23.431Z,60.00
2023-04-06T03:30:26.914Z,59.90
2023-04-06T03:32:29.635Z,59.80
2023-04-06T03:34:32.304Z,60.16
2023-04-06T03:36:36.105Z,59.78
2023-04-06T03:38:40.798Z,59.87
2023-04-06T03:40:44.038Z,59.82
2023-04-06T03:42:46.774Z,59.54
2023-04-06T03:44:49.367Z,59.47
2023-04-06T03:46:52.243Z,59.45
2023-04-06T03:48:55.147Z,59.36
2023-04-06T03:50:57.759Z,59.49
2023-04-06T03:53:00.569Z,59.18
2023-04-06T03:55:03.979Z,59.39
2023-04-06T03:57:06.781Z,59.43
2023-04-06T03:59:10.063Z,58.92
2023-04-06T04:01:13.065Z,59.11
2023-04-06T04:03:15.861Z,59.06
2023-04-06T04:05:18.784Z,58.62
2023-04-06T04:07:21.496Z,58.87
2023-04-06T04:09:24.300Z,59.01
2023-04-06T04:11:26.966Z,58.94
2023-04-06T04:13:29.821Z,58.74
2023-04-06T04:15:32.521Z,58.80
2023-04-06T04:17:35.204Z,58.56
2023-04-06T04:19:37.946Z,58.41
2023-04-06T04:21:46.032Z,58.47
2023-04-06T04:23:48.661Z,58.41
2023-04-06T04:25:52.315Z,58.30
2023-04-06T04:27:55.112Z,58.43
2023-04-06T04:29:57.803Z,58.02
2023-04-06T04:32:00.758Z,58.27
2023-04-06T04:34:03.561Z,58.09
2023-04-06T04:36:06.675Z,57.87
2023-04-06T04:38:09.557Z,57.77
2023-04-06T04:40:12.823Z,58.26
2023-04-06T04:42:15.864Z,58.30
2023-04-06T04:44:18.574Z,57.72
2023-04-06T04:46:21.372Z,57.43
2023-04-06T04:48:24.178Z,57.59
2023-04-06T04:50:26.873Z,57.53
2023-04-06T04:52:29.662Z,57.44
2023-04-06T04:54:32.336Z,57.29
2023-04-06T04:56:35.014Z,57.28
2023-04-06T04:58:37.999Z,56.97
2023-04-06T05:00:40.682Z,56.96
2023-04-06T05:02:43.744Z,57.19
2023-04-06T05:04:46.779Z,57.27
2023-04-06T05:06:49.416Z,57.31
2023-04-06T05:08:52.146Z,56.93
2023-04-06T05:10:54.739Z,57.03
2023-04-06T05:12:57.465Z,56.97
2023-04-06T05:15:00.822Z,57.01
2023-04-06T05:17:03.739Z,56.69
2023-04-06T05:19:06.751Z,56.45
2023-04-06T05:21:10.889Z,56.72
2023-04-06T05:23:14.067Z,56.74
2023-04-06T05:25:19.698Z,56.26
2023-04-06T05:27:28.450Z,56.63
2023-04-06T05:29:32.958Z,56.69
2023-04-06T05:31:36.202Z,56.45
2023-04-06T05:33:38.971Z,56.48
2023-04-06T05:35:42.022Z,56.13
2023-04-06T05:37:45.567Z,56.64
2023-04-06T05:39:48.741Z,56.33
2023-04-06T05:41:52.122Z,56.01
2023-04-06T05:43:55.070Z,55.78
2023-04-06T05:45:57.965Z,56.44
2023-04-06T05:48:00.980Z,56.01
2023-04-06T05:50:04.618Z,55.94
2023-04-06T05:52:07.482Z,55.49
2023-04-06T05:54:10.482Z,55.71
2023-04-06T05:56:13.244Z,56.04
2023-04-06T05:58:16.120Z,55.54
2023-04-06T06:00:18.962Z,55.51
2023-04-06T06:02:22.446Z,56.01
2023-04-06T06:04:25.674Z,55.43
2023-04-06T06:06:29.568Z,55.53
2023-04-06T06:08:32.761Z,55.92
2023-04-06T06:10:35.464Z,55.34
2023-04-06T06:12:38.275Z,55.26
2023-04-06T06:14:41.080Z,55.05
2023-04-06T06:16:43.974Z,55.30
2023-04-06T06:18:47.335Z,55.47
2023-04-06T06:20:50.599Z,55.17
2023-04-06T06:22:54.124Z,55.85
2023-04-06T06:24:57.164Z,55.39
2023-04-06T06:26:59.938Z,55.51
2023-04-06T06:29:02.692Z,55.30
2023-04-06T06:31:05.787Z,55.39
2023-04-06T06:33:08.804Z,55.38
2023-04-06T06:35:11.555Z,55.75
2023-04-06T06:37:14.430Z,55.67
2023-04-06T06:39:17.176Z,55.46
2023-04-06T06:41:19.814Z,55.43
2023-04-06T06:43:22.640Z,55.97
2023-04-06T06:45:26.733Z,56.15
2023-04-06T06:47:29.585Z,55.63
2023-04-06T06:49:32.387Z,55.17
2023-04-06T06:51:35.280Z,55.17
2023-04-06T06:53:38.412Z,55.36
2023-04-06T06:55:41.105Z,55.62
2023-04-06T06:57:44.533Z,55.36
2023-04-06T06:59:51.255Z,54.66
2023-04-06T07:01:55.193Z,54.84
2023-04-06T07:03:57.988Z,53.91
2023-04-06T07:06:00.810Z,53.33
2023-04-06T07:08:03.759Z,53.79
2023-04-06T07:10:07.058Z,53.18
2023-04-06T07:12:09.807Z,52.54
2023-04-06T07:14:12.919Z,52.72
2023-04-06T07:16:15.967Z,53.25
2023-04-06T07:18:19.614Z,53.00
2023-04-06T07:20:22.368Z,52.73
2023-04-06T07:22:25.510Z,52.77
2023-04-06T07:24:28.262Z,52.91
2023-04-06T07:26:31.110Z,52.39
2023-04-06T07:28:33.916Z,51.98
2023-04-06T07:30:38.566Z,52.22
2023-04-06T07:32:41.576Z,51.29
2023-04-06T07:34:46.277Z,51.68
2023-04-06T07:36:49.320Z,51.47
2023-04-06T07:38:52.396Z,51.35
2023-04-06T07:40:55.601Z,51.89
2023-04-06T07:42:58.517Z,50.97
2023-04-06T07:45:01.182Z,51.24
2023-04-06T07:47:03.912Z,51.25
2023-04-06T07:49:06.889Z,51.18
2023-04-06T07:51:11.833Z,51.20
2023-04-06T07:53:15.245Z,50.26
2023-04-06T07:55:18.660Z,49.99
2023-04-06T07:57:21.353Z,49.73
2023-04-06T07:59:24.190Z,49.97
2023-04-06T08:01:29.128Z,49.96
2023-04-06T08:03:35.464Z,49.85
2023-04-06T08:05:38.842Z,50.22
2023-04-06T08:07:42.900Z,50.09
2023-04-06T08:09:45.612Z,49.42
2023-04-06T08:11:50.463Z,49.26
2023-04-06T08:13:55.309Z,49.00
2023-04-06T08:16:00.195Z,49.05
2023-04-06T08:18:03.920Z,49.22
2023-04-06T08:20:07.198Z,48.26
2023-04-06T08:22:09.870Z,48.03
2023-04-06T08:24:13.138Z,47.91
2023-04-06T08:26:15.973Z,47.91
2023-04-06T08:28:18.680Z,47.79
2023-04-06T08:30:22.177Z,47.02
2023-04-06T08:32:26.339Z,47.20
2023-04-06T08:34:29.214Z,47.12
2023-04-06T08:36:31.937Z,46.95
2023-04-06T08:38:34.984Z,46.92
2023-04-06T08:40:41.618Z,46.23
2023-04-06T08:42:51.196Z,46.16
2023-04-06T08:44:54.853Z,45.94
2023-04-06T08:47:00.626Z,45.20
2023-04-06T08:49:04.431Z,45.29
2023-04-06T08:51:07.579Z,44.71
2023-04-06T08:53:10.461Z,44.73
2023-04-06T08:55:13.341Z,45.06
2023-04-06T08:57:17.893Z,43.72
2023-04-06T08:59:26.111Z,43.43
2023-04-06T09:01:30.049Z,43.73
2023-04-06T09:03:36.298Z,43.68
2023-04-06T09:05:40.154Z,43.89
2023-04-06T09:07:43.252Z,43.87
2023-04-06T09:09:49.119Z,44.39
2023-04-06T09:11:53.443Z,43.88
2023-04-06T09:13:58.544Z,43.93
2023-04-06T09:16:06.615Z,43.46
2023-04-06T09:18:11.016Z,43.91
2023-04-06T09:20:20.002Z,44.51
2023-04-06T09:22:26.810Z,43.95
2023-04-06T09:24:29.613Z,44.10
2023-04-06T09:26:34.966Z,43.52
2023-04-06T09:28:43.829Z,44.14
2023-04-06T09:30:50.852Z,44.08
2023-04-06T09:32:57.007Z,44.35
2023-04-06T09:35:11.871Z,44.16
2023-04-06T09:37:20.299Z,43.70
2023-04-06T09:39:26.722Z,43.42
2023-04-06T09:41:31.851Z,43.17
2023-04-06T09:43:34.642Z,43.50
2023-04-06T09:45:37.610Z,43.14
2023-04-06T09:47:44.284Z,42.28
2023-04-06T09:49:51.796Z,41.90
2023-04-06T09:51:59.711Z,41.81
2023-04-06T09:54:05.361Z,42.30
2023-04-06T09:56:13.087Z,42.01
2023-04-06T09:58:22.068Z,41.88
2023-04-06T10:00:27.965Z,41.37
2023-04-06T10:02:38.303Z,41.36
2023-04-06T10:04:44.699Z,41.23
2023-04-06T10:06:53.553Z,40.82
2023-04-06T10:09:00.548Z,40.46
2023-04-06T10:11:09.704Z,40.58
2023-04-06T10:13:28.076Z,39.94
2023-04-06T10:15:37.695Z,39.96
2023-04-06T10:17:41.531Z,40.05
2023-04-06T10:20:11.746Z,39.53
2023-04-06T10:22:44.569Z,39.43
2023-04-06T10:24:53.017Z,39.65
2023-04-06T10:27:03.340Z,39.16
2023-04-06T10:29:07.145Z,38.96
2023-04-06T10:31:09.993Z,38.87
2023-04-06T10:33:17.713Z,38.08
2023-04-06T10:35:20.665Z,38.01
2023-04-06T10:37:23.486Z,38.41
2023-04-06T10:39:27.392Z,38.08
2023-04-06T10:41:49.344Z,37.55
2023-04-06T10:43:58.345Z,36.58
2023-04-06T10:46:02.172Z,37.18
2023-04-06T10:48:16.303Z,37.22
2023-04-06T10:50:19.052Z,36.77
2023-04-06T10:52:21.773Z,37.34
2023-04-06T10:54:26.273Z,37.51
2023-04-06T10:56:31.104Z,36.97
2023-04-06T10:58:33.865Z,37.21
2023-04-06T11:00:50.231Z,36.91
2023-04-06T11:03:01.322Z,36.36
2023-04-06T11:05:06.401Z,36.51
2023-04-06T11:07:09.544Z,35.59
2023-04-06T11:09:12.249Z,35.97
2023-04-06T11:11:17.368Z,35.09
2023-04-06T11:13:20.251Z,34.83
2023-04-06T11:15:23.265Z,34.45
2023-04-06T11:17:33.573Z,34.27
2023-04-06T11:19:36.588Z,33.29
2023-04-06T11:21:45.092Z,33.59
2023-04-06T11:23:47.772Z,32.53
2023-04-06T11:25:54.228Z,32.18
2023-04-06T11:27:57.108Z,32.09
2023-04-06T11:30:02.389Z,31.70
2023-04-06T11:32:08.541Z,30.74
2023-04-06T11:34:12.832Z,30.63
2023-04-06T11:36:16.537Z,31.21
2023-04-06T11:38:22.247Z,30.47
2023-04-06T11:40:26.103Z,30.56
2023-04-06T11:42:30.835Z,30.09
2023-04-06T11:44:34.584Z,28.63
2023-04-06T11:46:37.536Z,29.79
2023-04-06T11:48:46.781Z,28.83
2023-04-06T11:50:50.245Z,28.94
2023-04-06T11:53:02.110Z,28.15
2023-04-06T11:55:21.545Z,27.83
2023-04-06T11:57:26.681Z,28.58
2023-04-06T11:59:30.046Z,28.16
2023-04-06T12:01:38.847Z,27.07
2023-04-06T12:03:42.153Z,27.35
2023-04-06T12:05:46.148Z,27.95
2023-04-06T12:07:49.195Z,27.00
2023-04-06T12:09:52.736Z,26.41
2023-04-06T12:11:55.486Z,25.93
2023-04-06T12:13:58.178Z,26.28
2023-04-06T12:16:00.971Z,25.22
2023-04-06T12:18:03.847Z,25.15
2023-04-06T12:20:22.111Z,25.46
2023-04-06T12:22:28.328Z,25.12
2023-04-06T12:24:31.240Z,24.47
2023-04-06T12:26:34.452Z,24.57
2023-04-06T12:28:37.482Z,24.65
2023-04-06T12:30:42.249Z,24.52
2023-04-06T12:32:45.054Z,23.95
2023-04-06T12:34:48.485Z,23.61
2023-04-06T12:36:51.395Z,23.92
2023-04-06T12:38:54.329Z,23.75
2023-04-06T12:40:57.206Z,23.48
2023-04-06T12:43:00.238Z,23.85
2023-04-06T12:45:03.615Z,23.11
2023-04-06T12:47:08.701Z,22.75
2023-04-06T12:49:12.393Z,22.52
2023-04-06T12:51:15.865Z,22.74
2023-04-06T12:53:18.661Z,22.13
2023-04-06T12:55:23.182Z,22.11
2023-04-06T12:57:26.769Z,22.28
2023-04-06T12:59:35.852Z,22.42
2023-04-06T13:01:39.022Z,22.73
2023-04-06T13:03:42.665Z,23.22
2023-04-06T13:05:46.977Z,23.45
2023-04-06T13:07:50.553Z,23.16
2023-04-06T13:09:53.616Z,22.66
2023-04-06T13:11:56.926Z,22.80
2023-04-06T13:13:59.931Z,23.64
2023-04-06T13:16:13.078Z,23.96
2023-04-06T13:18:15.854Z,24.75
2023-04-06T13:20:19.092Z,24.86
2023-04-06T13:22:22.371Z,24.71
2023-04-06T13:24:25.563Z,24.39
2023-04-06T13:26:29.712Z,24.38
2023-04-06T13:28:33.994Z,24.82
2023-04-06T13:30:37.165Z,25.22
2023-04-06T13:32:40.022Z,25.19
2023-04-06T13:34:46.117Z,25.13
2023-04-06T13:36:49.262Z,24.92
2023-04-06T13:38:52.152Z,24.98
2023-04-06T13:40:55.332Z,24.90
2023-04-06T13:42:58.592Z,25.06
2023-04-06T13:45:01.708Z,24.60
2023-04-06T13:47:07.128Z,24.80
2023-04-06T13:49:10.230Z,24.92
2023-04-06T13:51:14.564Z,25.07
2023-04-06T13:53:20.073Z,25.20
2023-04-06T13:55:25.847Z,25.37
2023-04-06T13:57:28.716Z,25.10
2023-04-06T13:59:38.007Z,24.90
2023-04-06T14:01:41.041Z,24.95
2023-04-06T14:03:46.770Z,25.59
2023-04-06T14:05:49.926Z,25.67
2023-04-06T14:07:52.652Z,24.84
2023-04-06T14:09:55.396Z,25.21
2023-04-06T14:11:58.328Z,24.87
2023-04-06T14:14:01.434Z,24.79
2023-04-06T14:16:04.326Z,24.92
2023-04-06T14:18:07.362Z,25.39
2023-04-06T14:20:15.113Z,25.42
2023-04-06T14:22:18.913Z,25.95
2023-04-06T14:24:21.910Z,25.15
2023-04-06T14:26:24.558Z,26.63
2023-04-06T14:28:28.188Z,25.44
2023-04-06T14:30:34.189Z,26.56
2023-04-06T14:32:38.601Z,26.96
2023-04-06T14:34:41.258Z,25.70
2023-04-06T14:36:44.179Z,25.49
2023-04-06T14:38:49.918Z,26.12
2023-04-06T14:40:52.642Z,25.63
2023-04-06T14:42:56.876Z,25.25
2023-04-06T14:44:59.523Z,25.80
2023-04-06T14:47:02.322Z,25.34
2023-04-06T14:49:05.488Z,27.28
2023-04-06T14:51:08.640Z,27.03
2023-04-06T14:53:11.836Z,26.90
2023-04-06T14:55:15.282Z,27.00
2023-04-06T14:57:17.974Z,27.10
2023-04-06T14:59:20.617Z,27.07
2023-04-06T15:01:23.304Z,27.28
2023-04-06T15:03:27.093Z,28.43
2023-04-06T15:05:29.928Z,28.25
2023-04-06T15:07:32.657Z,30.94
2023-04-06T15:09:36.894Z,29.83
2023-04-06T15:11:39.649Z,30.35
2023-04-06T15:13:42.749Z,30.47
2023-04-06T15:15:45.705Z,30.87
2023-04-06T15:17:48.488Z,31.84
2023-04-06T15:19:51.180Z,33.08
2023-04-06T15:21:53.870Z,32.80
2023-04-06T15:23:56.808Z,34.42
2023-04-06T15:25:59.600Z,33.21
2023-04-06T15:28:02.251Z,33.29
2023-04-06T15:30:05.426Z,33.67
2023-04-06T15:32:10.809Z,34.52
2023-04-06T15:34:13.493Z,34.23
2023-04-06T15:36:25.960Z,34.99
2023-04-06T15:38:30.206Z,34.51
2023-04-06T15:40:33.256Z,35.08
2023-04-06T15:42:36.071Z,35.20
2023-04-06T15:44:38.735Z,34.19
2023-04-06T15:46:41.483Z,35.08
2023-04-06T15:48:44.352Z,35.88
2023-04-06T15:50:47.602Z,35.40
2023-04-06T15:52:50.201Z,35.61
2023-04-06T15:54:53.979Z,35.51
2023-04-06T15:56:57.196Z,35.52
2023-04-06T15:59:00.334Z,37.16
2023-04-06T16:01:12.139Z,36.57
2023-04-06T16:03:15.104Z,37.13
2023-04-06T16:05:17.981Z,37.26
2023-04-06T16:07:21.234Z,36.95
2023-04-06T16:09:23.908Z,37.80
2023-04-06T16:11:26.812Z,36.73
2023-04-06T16:13:29.441Z,37.37
2023-04-06T16:15:32.081Z,37.26
2023-04-06T16:17:34.946Z,37.03
2023-04-06T16:19:37.557Z,37.81
2023-04-06T16:21:40.284Z,38.15
2023-04-06T16:23:42.933Z,38.14
2023-04-06T16:25:46.023Z,38.46
2023-04-06T16:27:48.689Z,38.80
2023-04-06T16:29:51.918Z,38.93
2023-04-06T16:31:55.340Z,40.01
2023-04-06T16:33:58.658Z,39.72
2023-04-06T16:36:01.630Z,39.54
2023-04-06T16:38:04.384Z,39.97
2023-04-06T16:40:08.637Z,39.82
2023-04-06T16:42:11.504Z,40.63
2023-04-06T16:44:14.189Z,40.36
2023-04-06T16:46:17.555Z,40.07
2023-04-06T16:48:20.882Z,40.19
2023-04-06T16:50:23.577Z,40.44
2023-04-06T16:52:26.754Z,40.97
2023-04-06T16:54:29.580Z,41.27
2023-04-06T16:56:33.050Z,40.58
2023-04-06T16:58:37.128Z,41.12
2023-04-06T17:00:40.214Z,41.20
2023-04-06T17:02:43.106Z,41.30
2023-04-06T17:04:46.054Z,41.45
2023-04-06T17:06:49.573Z,41.38
2023-04-06T17:08:54.171Z,41.78
2023-04-06T17:10:59.610Z,41.66
2023-04-06T17:13:06.948Z,41.80
2023-04-06T17:15:09.964Z,42.16
2023-04-06T17:17:12.777Z,42.00
2023-04-06T17:19:15.539Z,42.04
2023-04-06T17:21:20.733Z,42.29
2023-04-06T17:23:25.472Z,42.69
2023-04-06T17:25:28.279Z,42.85
2023-04-06T17:27:31.446Z,42.90
2023-04-06T17:29:36.440Z,43.25
2023-04-06T17:31:40.725Z,43.53
2023-04-06T17:33:43.585Z,43.51
2023-04-06T17:35:46.506Z,43.58
2023-04-06T17:37:49.758Z,43.62
2023-04-06T17:39:52.450Z,43.68
2023-04-06T17:41:58.211Z,44.14
2023-04-06T17:44:01.639Z,44.41
2023-04-06T17:46:05.428Z,44.66
2023-04-06T17:48:08.362Z,44.10
2023-04-06T17:50:12.722Z,44.72
2023-04-06T17:52:15.778Z,44.88
2023-04-06T17:54:19.393Z,44.84
2023-04-06T17:56:22.137Z,45.00
2023-04-06T17:58:30.203Z,45.07
2023-04-06T18:00:34.910Z,44.81
2023-04-06T18:02:38.243Z,45.48
2023-04-06T18:04:44.439Z,45.66
2023-04-06T18:06:47.275Z,45.27
2023-04-06T18:08:50.040Z,45.74
2023-04-06T18:10:52.674Z,46.08
2023-04-06T18:12:55.906Z,46.04
2023-04-06T18:14:59.075Z,46.04
2023-04-06T18:17:02.018Z,46.21
2023-04-06T18:19:05.154Z,46.39
2023-04-06T18:21:09.406Z,46.71
2023-04-06T18:23:12.112Z,45.98
2023-04-06T18:25:14.773Z,46.34
2023-04-06T18:27:18.021Z,46.13
2023-04-06T18:29:20.710Z,46.79
2023-04-06T18:31:23.484Z,46.25
2023-04-06T18:33:31.647Z,46.14
2023-04-06T18:35:34.986Z,46.13
2023-04-06T18:37:37.930Z,46.25
2023-04-06T18:39:43.533Z,47.17
2023-04-06T18:41:46.582Z,46.85
2023-04-06T18:43:49.768Z,46.31
2023-04-06T18:45:52.586Z,46.58
2023-04-06T18:47:59.790Z,46.64
2023-04-06T18:50:02.840Z,46.45
2023-04-06T18:52:06.993Z,46.42
2023-04-06T18:54:10.257Z,46.23
2023-04-06T18:56:17.706Z,46.37
2023-04-06T18:58:20.763Z,46.49
2023-04-06T19:00:23.601Z,45.87
2023-04-06T19:02:26.582Z,46.27
2023-04-06T19:04:30.564Z,46.21
2023-04-06T19:06:34.203Z,45.90
2023-04-06T19:08:36.942Z,46.38
2023-04-06T19:10:39.697Z,45.94
2023-04-06T19:12:42.890Z,46.04
2023-04-06T19:14:51.713Z,46.55
2023-04-06T19:16:54.517Z,47.40
2023-04-06T19:19:00.422Z,47.02
2023-04-06T19:21:05.841Z,46.66
2023-04-06T19:23:16.665Z,46.58
2023-04-06T19:25:24.176Z,46.62
2023-04-06T19:27:29.264Z,46.47
2023-04-06T19:29:32.974Z,46.95
2023-04-06T19:31:36.573Z,47.02
2023-04-06T19:33:39.686Z,47.07
2023-04-06T19:35:43.088Z,46.90
2023-04-06T19:37:47.039Z,47.29
2023-04-06T19:39:51.472Z,46.92
2023-04-06T19:41:57.716Z,47.35
2023-04-06T19:44:01.835Z,48.05
2023-04-06T19:46:05.179Z,48.11
2023-04-06T19:48:09.998Z,48.25
2023-04-06T19:50:13.015Z,47.97
2023-04-06T19:52:16.424Z,48.15
2023-04-06T19:54:19.405Z,48.33
2023-04-06T19:56:22.616Z,48.98
2023-04-06T19:58:28.177Z,49.16
2023-04-06T20:00:31.375Z,48.88
2023-04-06T20:02:34.451Z,49.73
2023-04-06T20:04:37.423Z,50.43
2023-04-06T20:06:40.356Z,49.26
2023-04-06T20:08:43.359Z,49.82
2023-04-06T20:10:46.554Z,50.10
2023-04-06T20:12:50.709Z,50.41
2023-04-06T20:14:53.529Z,50.15
2023-04-06T20:16:56.127Z,50.28
2023-04-06T20:18:58.831Z,50.28
2023-04-06T20:21:02.696Z,50.53
2023-04-06T20:23:05.391Z,50.58
2023-04-06T20:25:08.594Z,51.12
2023-04-06T20:27:11.297Z,50.68
2023-04-06T20:29:13.954Z,51.33
2023-04-06T20:31:16.681Z,51.06
2023-04-06T20:33:19.362Z,51.54
2023-04-06T20:35:21.963Z,51.32
2023-04-06T20:37:24.625Z,51.46
2023-04-06T20:39:27.631Z,51.31
2023-04-06T20:41:30.792Z,50.77
2023-04-06T20:43:33.385Z,51.58
2023-04-06T20:45:38.619Z,51.16
2023-04-06T20:47:41.458Z,51.27
2023-04-06T20:49:45.031Z,50.74
2023-04-06T20:51:47.712Z,50.96
2023-04-06T20:53:50.549Z,51.04
2023-04-06T20:55:53.302Z,50.98
2023-04-06T20:57:56.129Z,51.29
2023-04-06T20:59:58.773Z,51.25
2023-04-06T21:02:01.537Z,50.62
2023-04-06T21:04:04.567Z,50.56
2023-04-06T21:06:07.738Z,50.84
2023-04-06T21:08:10.524Z,51.33
2023-04-06T21:10:13.128Z,50.89
2023-04-06T21:12:16.111Z,51.72
2023-04-06T21:14:20.546Z,51.34
2023-04-06T21:16:23.877Z,52.03
2023-04-06T21:18:26.610Z,51.82
2023-04-06T21:20:29.385Z,51.75
2023-04-06T21:22:32.091Z,51.89
2023-04-06T21:24:34.782Z,52.17
2023-04-06T21:26:37.552Z,52.61
2023-04-06T21:28:40.142Z,52.13
2023-04-06T21:30:43.459Z,52.50
2023-04-06T21:32:46.262Z,51.85
2023-04-06T21:34:48.991Z,52.67
2023-04-06T21:36:51.725Z,52.56
2023-04-06T21:38:54.317Z,52.71
2023-04-06T21:40:57.108Z,52.27
2023-04-06T21:42:59.755Z,52.95
2023-04-06T21:45:02.715Z,52.84
2023-04-06T21:47:06.418Z,52.83
2023-04-06T21:49:09.207Z,52.70
2023-04-06T21:51:20.424Z,53.54
2023-04-06T21:53:23.245Z,52.96
2023-04-06T21:55:26.172Z,53.36
2023-04-06T21:57:28.794Z,53.47
2023-04-06T21:59:31.495Z,53.44
2023-04-06T22:01:34.124Z,53.96
2023-04-06T22:03:37.205Z,53.65
2023-04-06T22:05:40.150Z,53.85
2023-04-06T22:07:44.847Z,54.38
2023-04-06T22:09:51.365Z,53.50
2023-04-06T22:11:55.486Z,53.38
2023-04-06T22:13:58.119Z,53.28
2023-04-06T22:16:00.842Z,53.52
2023-04-06T22:18:03.513Z,53.61
2023-04-06T22:20:06.820Z,53.63
2023-04-06T22:22:09.631Z,53.63
2023-04-06T22:24:12.455Z,53.56
2023-04-06T22:26:15.148Z,53.37
2023-04-06T22:28:17.819Z,53.40
2023-04-06T22:30:20.668Z,53.14
2023-04-06T22:32:23.481Z,53.45
2023-04-06T22:34:26.265Z,53.90
2023-04-06T22:36:29.070Z,53.03
2023-04-06T22:38:31.640Z,53.11
2023-04-06T22:40:34.280Z,53.39
2023-04-06T22:42:36.932Z,53.59
2023-04-06T22:44:39.586Z,54.34
2023-04-06T22:46:42.329Z,54.12
2023-04-06T22:48:44.932Z,54.52
2023-04-06T22:50:47.506Z,53.62
2023-04-06T22:52:50.355Z,54.04
2023-04-06T22:54:53.146Z,54.46
2023-04-06T22:56:56.102Z,54.97
2023-04-06T22:58:58.720Z,54.71
2023-04-06T23:01:01.368Z,55.03
2023-04-06T23:03:04.309Z,54.75
2023-04-06T23:05:07.297Z,54.86
2023-04-06T23:07:12.524Z,54.94
2023-04-06T23:09:15.112Z,55.32
2023-04-06T23:11:17.708Z,55.30
2023-04-06T23:13:20.663Z,55.45
2023-04-06T23:15:23.231Z,55.56
2023-04-06T23:17:26.203Z,54.65
2023-04-06T23:19:29.241Z,55.62
2023-04-06T23:21:33.260Z,55.68
2023-04-06T23:23:36.155Z,54.75
2023-04-06T23:25:38.785Z,54.96
2023-04-06T23:27:41.440Z,54.67
2023-04-06T23:29:44.076Z,54.42
2023-04-06T23:31:46.737Z,54.75
2023-04-06T23:33:49.384Z,54.81
2023-04-06T23:35:52.295Z,54.32
2023-04-06T23:37:55.057Z,54.88
2023-04-06T23:39:57.754Z,54.44
2023-04-06T23:42:01.653Z,54.68
2023-04-06T23:44:04.301Z,54.85
2023-04-06T23:46:06.997Z,54.99
2023-04-06T23:48:10.363Z,54.55
2023-04-06T23:50:13.053Z,55.04
2023-04-06T23:52:15.674Z,55.21
2023-04-06T23:54:18.211Z,55.21
2023-04-06T23:56:20.851Z,54.77
2023-04-06T23:58:23.526Z,55.31
